createdAt,value
2023-01-18T00:01:08.031Z,6.25
2023-01-18T00:03:35.283Z,6.27
2023-01-18T00:06:04.806Z,6.41
2023-01-18T00:08:34.795Z,6.41
2023-01-18T00:11:05.741Z,6.44
2023-01-18T00:13:32.439Z,6.48
2023-01-18T00:16:03.730Z,6.57
2023-01-18T00:18:30.873Z,6.57
2023-01-18T00:21:01.823Z,6.61
2023-01-18T00:23:28.853Z,6.73
2023-01-18T00:25:59.318Z,6.76
2023-01-18T00:28:25.857Z,6.74
2023-01-18T00:30:52.409Z,6.80
2023-01-18T00:33:19.043Z,6.89
2023-01-18T00:35:54.553Z,6.96
2023-01-18T00:38:21.326Z,7.01
2023-01-18T00:40:50.267Z,7.09
2023-01-18T00:43:36.193Z,7.13
2023-01-18T00:46:02.864Z,7.13
2023-01-18T00:48:29.535Z,6.99
2023-01-18T00:50:58.567Z,6.86
2023-01-18T00:53:27.688Z,6.79
2023-01-18T00:55:54.306Z,6.73
2023-01-18T00:58:25.817Z,6.71
2023-01-18T01:00:52.980Z,6.77
2023-01-18T01:03:25.136Z,6.89
2023-01-18T01:06:10.298Z,7.01
2023-01-18T01:08:36.963Z,7.05
2023-01-18T01:11:12.710Z,7.10
2023-01-18T01:13:57.950Z,7.17
2023-01-18T01:16:43.239Z,7.21
2023-01-18T01:19:28.523Z,7.28
2023-01-18T01:22:13.920Z,7.35
2023-01-18T01:24:59.216Z,7.34
2023-01-18T01:27:26.204Z,7.42
2023-01-18T01:29:55.404Z,7.39
2023-01-18T01:32:22.140Z,7.37
2023-01-18T01:34:51.402Z,7.38
2023-01-18T01:37:18.086Z,7.34
2023-01-18T01:39:44.708Z,7.31
2023-01-18T01:42:14.116Z,7.24
2023-01-18T01:44:42.987Z,7.19
2023-01-18T01:47:15.193Z,7.18
2023-01-18T01:49:43.430Z,7.04
2023-01-18T01:52:13.509Z,6.97
2023-01-18T01:55:01.655Z,6.95
2023-01-18T01:57:32.404Z,6.84
2023-01-18T02:00:04.157Z,6.82
2023-01-18T02:02:41.417Z,6.80
2023-01-18T02:05:08.387Z,6.73
2023-01-18T02:07:37.347Z,6.78
2023-01-18T02:10:04.901Z,6.75
2023-01-18T02:12:31.434Z,6.63
2023-01-18T02:14:58.473Z,6.59
2023-01-18T02:17:25.134Z,6.70
2023-01-18T02:20:19.576Z,6.90
2023-01-18T02:23:18.966Z,7.03
2023-01-18T02:25:57.749Z,6.96
2023-01-18T02:28:25.163Z,6.97
2023-01-18T02:31:13.658Z,7.05
2023-01-18T02:33:47.122Z,7.14
2023-01-18T02:36:35.478Z,6.91
2023-01-18T02:39:07.200Z,6.82
2023-01-18T02:41:52.825Z,6.72
2023-01-18T02:44:40.337Z,6.57
2023-01-18T02:47:07.179Z,6.49
2023-01-18T02:49:33.800Z,6.35
2023-01-18T02:52:06.878Z,6.47
2023-01-18T02:54:38.416Z,6.61
2023-01-18T02:57:06.369Z,6.65
2023-01-18T02:59:42.909Z,6.74
2023-01-18T03:02:10.471Z,6.70
2023-01-18T03:04:38.090Z,6.48
2023-01-18T03:07:10.223Z,6.38
2023-01-18T03:09:36.977Z,6.25
2023-01-18T03:12:06.472Z,6.26
2023-01-18T03:14:41.949Z,6.30
2023-01-18T03:17:14.155Z,6.33
2023-01-18T03:20:08.020Z,6.26
2023-01-18T03:22:56.834Z,6.19
2023-01-18T03:25:25.997Z,6.16
2023-01-18T03:28:11.317Z,6.26
2023-01-18T03:30:56.443Z,6.33
2023-01-18T03:33:41.860Z,6.44
2023-01-18T03:36:09.851Z,6.43
2023-01-18T03:38:36.605Z,6.43
2023-01-18T03:41:03.601Z,6.50
2023-01-18T03:43:36.527Z,6.70
2023-01-18T03:46:03.813Z,6.72
2023-01-18T03:48:31.543Z,6.84
2023-01-18T03:51:01.248Z,7.05
2023-01-18T03:53:32.879Z,7.17
2023-01-18T03:56:02.079Z,7.34
2023-01-18T03:58:35.172Z,7.44
2023-01-18T04:01:04.404Z,7.49
2023-01-18T04:03:32.019Z,7.57
2023-01-18T04:06:01.632Z,7.46
2023-01-18T04:08:28.614Z,7.38
2023-01-18T04:10:55.201Z,7.20
2023-01-18T04:13:24.236Z,7.17
2023-01-18T04:15:51.304Z,7.04
2023-01-18T04:18:20.441Z,6.88
2023-01-18T04:20:51.228Z,6.88
2023-01-18T04:23:17.854Z,6.97
2023-01-18T04:25:50.075Z,7.05
2023-01-18T04:28:17.474Z,7.19
2023-01-18T04:30:44.183Z,7.15
2023-01-18T04:33:10.715Z,6.97
2023-01-18T04:35:40.356Z,6.70
2023-01-18T04:38:09.844Z,6.72
2023-01-18T04:40:36.436Z,6.84
2023-01-18T04:43:04.587Z,6.96
2023-01-18T04:45:33.821Z,7.03
2023-01-18T04:48:01.597Z,7.18
2023-01-18T04:50:28.277Z,7.27
2023-01-18T04:52:54.879Z,7.31
2023-01-18T04:55:21.766Z,7.36
2023-01-18T04:57:54.374Z,7.37
2023-01-18T05:00:22.374Z,7.08
2023-01-18T05:02:49.923Z,6.96
2023-01-18T05:05:19.124Z,6.92
2023-01-18T05:07:45.750Z,6.85
2023-01-18T05:10:12.527Z,6.68
2023-01-18T05:12:39.229Z,6.69
2023-01-18T05:15:16.006Z,6.72
2023-01-18T05:17:45.131Z,6.55
2023-01-18T05:20:14.094Z,6.31
2023-01-18T05:22:40.746Z,6.13
2023-01-18T05:25:12.973Z,5.81
2023-01-18T05:27:39.619Z,5.56
2023-01-18T05:30:07.095Z,5.45
2023-01-18T05:32:33.703Z,5.44
2023-01-18T05:35:06.538Z,5.38
2023-01-18T05:37:35.564Z,5.11
2023-01-18T05:40:02.277Z,4.94
2023-01-18T05:42:29.204Z,4.95
2023-01-18T05:44:58.383Z,4.87
2023-01-18T05:47:25.077Z,4.85
2023-01-18T05:49:51.750Z,4.67
2023-01-18T05:52:18.389Z,4.53
2023-01-18T05:54:50.202Z,4.42
2023-01-18T05:57:26.415Z,4.39
2023-01-18T05:59:53.222Z,4.50
2023-01-18T06:02:19.865Z,4.77
2023-01-18T06:04:49.091Z,4.98
2023-01-18T06:07:16.560Z,5.19
2023-01-18T06:09:45.495Z,5.32
2023-01-18T06:12:16.016Z,5.39
2023-01-18T06:14:42.752Z,5.36
2023-01-18T06:17:09.325Z,5.27
2023-01-18T06:19:36.046Z,5.35
2023-01-18T06:22:02.731Z,5.48
2023-01-18T06:24:29.328Z,5.57
2023-01-18T06:26:55.958Z,5.46
2023-01-18T06:29:22.805Z,5.31
2023-01-18T06:31:51.966Z,5.28
2023-01-18T06:34:21.150Z,5.26
2023-01-18T06:36:47.888Z,5.23
2023-01-18T06:39:14.928Z,5.23
2023-01-18T06:41:44.140Z,5.27
2023-01-18T06:44:15.578Z,5.39
2023-01-18T06:46:45.277Z,5.41
2023-01-18T06:49:15.460Z,5.51
2023-01-18T06:51:42.160Z,5.63
2023-01-18T06:54:11.284Z,5.75
2023-01-18T06:56:38.227Z,5.78
2023-01-18T06:59:06.506Z,5.80
2023-01-18T07:01:35.201Z,5.81
2023-01-18T07:04:01.907Z,5.37
2023-01-18T07:06:32.287Z,5.10
2023-01-18T07:09:03.407Z,4.99
2023-01-18T07:11:30.005Z,4.95
2023-01-18T07:13:56.675Z,4.81
2023-01-18T07:16:25.593Z,4.67
2023-01-18T07:18:54.773Z,4.55
2023-01-18T07:21:29.505Z,4.53
2023-01-18T07:23:58.925Z,4.47
2023-01-18T07:26:29.937Z,4.43
2023-01-18T07:29:00.242Z,4.54
2023-01-18T07:31:27.539Z,4.74
2023-01-18T07:33:54.191Z,4.82
2023-01-18T07:36:21.745Z,4.88
2023-01-18T07:38:49.300Z,4.94
2023-01-18T07:41:16.828Z,4.68
2023-01-18T07:43:47.532Z,4.48
2023-01-18T07:46:15.933Z,4.28
2023-01-18T07:48:45.221Z,4.29
2023-01-18T07:51:12.060Z,4.32
2023-01-18T07:53:39.193Z,4.47
2023-01-18T07:56:07.318Z,4.70
2023-01-18T07:58:34.696Z,4.99
2023-01-18T08:01:09.669Z,5.30
2023-01-18T08:03:36.820Z,5.59
2023-01-18T08:06:04.575Z,5.77
2023-01-18T08:08:36.403Z,5.97
2023-01-18T08:11:05.958Z,5.90
2023-01-18T08:13:35.329Z,5.25
2023-01-18T08:16:04.818Z,5.14
2023-01-18T08:18:35.994Z,5.17
2023-01-18T08:21:04.847Z,5.18
2023-01-18T08:23:33.883Z,5.14
2023-01-18T08:26:01.143Z,4.84
2023-01-18T08:28:27.893Z,4.68
2023-01-18T08:31:04.358Z,4.67
2023-01-18T08:33:36.152Z,4.70
2023-01-18T08:36:05.104Z,4.75
2023-01-18T08:38:31.743Z,4.72
2023-01-18T08:40:58.543Z,4.76
2023-01-18T08:43:25.150Z,4.71
2023-01-18T08:45:51.722Z,4.65
2023-01-18T08:48:18.455Z,4.63
2023-01-18T08:50:47.826Z,4.71
2023-01-18T08:53:15.221Z,4.84
2023-01-18T08:55:41.838Z,4.87
2023-01-18T08:58:12.170Z,4.88
2023-01-18T09:00:38.826Z,4.92
2023-01-18T09:03:06.962Z,4.89
2023-01-18T09:05:36.674Z,4.97
2023-01-18T09:08:03.375Z,5.03
2023-01-18T09:10:32.894Z,5.04
2023-01-18T09:13:02.004Z,5.15
2023-01-18T09:15:29.396Z,5.26
2023-01-18T09:17:56.363Z,5.43
2023-01-18T09:20:25.544Z,5.80
2023-01-18T09:22:54.954Z,5.95
2023-01-18T09:25:21.544Z,6.32
2023-01-18T09:27:48.135Z,6.57
2023-01-18T09:30:16.248Z,6.69
2023-01-18T09:32:42.906Z,6.46
2023-01-18T09:35:12.049Z,5.96
2023-01-18T09:37:41.585Z,5.70
2023-01-18T09:40:14.750Z,5.52
2023-01-18T09:42:44.591Z,5.25
2023-01-18T09:45:18.012Z,5.07
2023-01-18T09:47:46.325Z,4.97
2023-01-18T09:50:13.229Z,4.95
2023-01-18T09:52:42.874Z,5.04
2023-01-18T09:55:11.841Z,5.01
2023-01-18T09:57:57.156Z,4.98
2023-01-18T10:00:23.978Z,5.01
2023-01-18T10:02:56.899Z,5.02
2023-01-18T10:05:25.116Z,5.05
2023-01-18T10:08:02.796Z,5.08
2023-01-18T10:10:31.417Z,5.14
2023-01-18T10:13:19.223Z,5.22
2023-01-18T10:15:46.052Z,5.38
2023-01-18T10:18:12.820Z,5.45
2023-01-18T10:20:42.275Z,5.54
2023-01-18T10:23:08.852Z,5.79
2023-01-18T10:25:44.298Z,5.92
2023-01-18T10:28:25.311Z,5.88
2023-01-18T10:30:58.154Z,6.02
2023-01-18T10:33:28.064Z,6.13
2023-01-18T10:36:01.879Z,6.38
2023-01-18T10:38:29.364Z,6.69
2023-01-18T10:40:59.323Z,6.90
2023-01-18T10:43:28.933Z,6.87
2023-01-18T10:45:56.015Z,6.82
2023-01-18T10:48:32.669Z,6.86
2023-01-18T10:51:00.659Z,6.84
2023-01-18T10:53:27.382Z,6.98
2023-01-18T10:56:02.188Z,7.00
2023-01-18T10:58:34.223Z,7.04
2023-01-18T11:01:03.819Z,7.25
2023-01-18T11:03:33.102Z,7.27
2023-01-18T11:06:04.185Z,7.07
2023-01-18T11:08:35.543Z,7.25
2023-01-18T11:11:05.472Z,7.30
2023-01-18T11:13:35.208Z,7.32
2023-01-18T11:16:04.285Z,7.34
2023-01-18T11:18:33.562Z,7.52
2023-01-18T11:21:02.706Z,7.82
2023-01-18T11:23:43.665Z,8.13
2023-01-18T11:26:14.267Z,8.19
2023-01-18T11:28:59.268Z,8.33
2023-01-18T11:31:45.869Z,8.52
2023-01-18T11:34:38.779Z,8.78
2023-01-18T11:37:05.720Z,9.34
2023-01-18T11:39:36.665Z,9.85
2023-01-18T11:42:21.037Z,10.48
2023-01-18T11:45:09.006Z,10.58
2023-01-18T11:47:50.959Z,10.59
2023-01-18T11:50:39.917Z,10.45
2023-01-18T11:53:25.454Z,10.82
2023-01-18T11:55:56.096Z,11.41
2023-01-18T11:58:24.833Z,11.84
2023-01-18T12:01:21.856Z,11.68
2023-01-18T12:03:51.591Z,11.52
2023-01-18T12:06:18.193Z,11.14
2023-01-18T12:08:44.921Z,11.10
2023-01-18T12:11:20.874Z,10.82
2023-01-18T12:14:06.640Z,10.67
2023-01-18T12:16:55.148Z,10.62
2023-01-18T12:19:24.982Z,10.17
2023-01-18T12:21:54.614Z,9.56
2023-01-18T12:24:28.396Z,9.15
2023-01-18T12:27:00.636Z,9.21
2023-01-18T12:29:43.240Z,9.45
2023-01-18T12:32:31.213Z,10.46
2023-01-18T12:35:23.653Z,10.23
2023-01-18T12:38:02.505Z,9.96
2023-01-18T12:40:29.139Z,10.19
2023-01-18T12:42:55.708Z,10.24
2023-01-18T12:45:26.493Z,10.07
2023-01-18T12:47:59.529Z,10.02
2023-01-18T12:50:30.299Z,10.05
2023-01-18T12:53:01.236Z,10.11
2023-01-18T12:55:31.731Z,9.92
2023-01-18T12:58:01.630Z,10.23
2023-01-18T13:00:31.753Z,10.46
2023-01-18T13:03:00.772Z,10.62
2023-01-18T13:05:51.101Z,10.93
2023-01-18T13:08:27.077Z,11.28
2023-01-18T13:10:54.234Z,11.30
2023-01-18T13:13:22.765Z,11.25
2023-01-18T13:16:09.931Z,11.07
2023-01-18T13:18:38.095Z,11.10
2023-01-18T13:21:17.172Z,11.05
2023-01-18T13:23:55.602Z,10.88
2023-01-18T13:26:22.276Z,10.76
2023-01-18T13:28:51.289Z,10.83
2023-01-18T13:31:17.940Z,10.87
2023-01-18T13:33:50.725Z,10.66
2023-01-18T13:36:18.114Z,10.45
2023-01-18T13:38:52.521Z,10.22
2023-01-18T13:41:26.148Z,10.26
2023-01-18T13:43:56.879Z,10.29
2023-01-18T13:46:24.753Z,10.21
2023-01-18T13:48:57.779Z,10.16
2023-01-18T13:51:37.184Z,10.26
2023-01-18T13:54:06.905Z,10.16
2023-01-18T13:56:38.669Z,10.24
2023-01-18T13:59:28.005Z,10.51
2023-01-18T14:01:54.756Z,10.52
2023-01-18T14:04:24.589Z,10.28
2023-01-18T14:06:51.640Z,10.31
2023-01-18T14:09:20.732Z,10.10
2023-01-18T14:11:51.509Z,10.17
2023-01-18T14:14:20.537Z,10.28
2023-01-18T14:16:59.984Z,10.10
2023-01-18T14:19:31.246Z,9.98
2023-01-18T14:22:12.838Z,9.97
2023-01-18T14:24:42.617Z,10.00
2023-01-18T14:27:14.892Z,9.99
2023-01-18T14:29:53.122Z,9.79
2023-01-18T14:32:45.107Z,9.67
2023-01-18T14:35:25.743Z,9.46
2023-01-18T14:38:17.747Z,9.45
2023-01-18T14:40:48.949Z,9.53
2023-01-18T14:43:24.375Z,9.58
2023-01-18T14:46:01.795Z,9.56
2023-01-18T14:48:31.674Z,9.49
2023-01-18T14:51:05.033Z,9.35
2023-01-18T14:53:33.687Z,9.33
2023-01-18T14:56:17.327Z,9.35
2023-01-18T14:58:50.668Z,9.29
2023-01-18T15:01:27.607Z,9.18
2023-01-18T15:03:55.739Z,9.19
2023-01-18T15:06:36.643Z,9.26
2023-01-18T15:09:05.220Z,9.33
2023-01-18T15:11:35.682Z,9.37
2023-01-18T15:14:02.507Z,9.36
2023-01-18T15:16:34.022Z,9.31
2023-01-18T15:19:02.020Z,9.34
2023-01-18T15:21:30.263Z,9.38
2023-01-18T15:24:11.620Z,9.37
2023-01-18T15:26:52.343Z,9.43
2023-01-18T15:29:31.210Z,9.43
2023-01-18T15:31:58.868Z,9.37
2023-01-18T15:34:30.279Z,9.36
2023-01-18T15:37:05.124Z,9.38
2023-01-18T15:39:35.101Z,9.41
2023-01-18T15:42:11.753Z,9.44
2023-01-18T15:44:41.590Z,9.46
2023-01-18T15:47:40.397Z,9.37
2023-01-18T15:50:15.838Z,9.31
2023-01-18T15:52:45.535Z,9.31
2023-01-18T15:55:36.990Z,9.32
2023-01-18T15:58:05.679Z,9.38
2023-01-18T16:00:45.779Z,9.41
2023-01-18T16:03:22.446Z,9.46
2023-01-18T16:06:10.293Z,9.52
2023-01-18T16:08:37.890Z,9.54
2023-01-18T16:11:06.441Z,9.51
2023-01-18T16:13:34.513Z,9.40
2023-01-18T16:16:17.549Z,9.42
2023-01-18T16:18:47.696Z,9.47
2023-01-18T16:21:17.931Z,9.39
2023-01-18T16:23:45.163Z,9.40
2023-01-18T16:26:11.889Z,9.42
2023-01-18T16:28:40.889Z,9.52
2023-01-18T16:31:07.529Z,9.60
2023-01-18T16:33:34.209Z,9.70
2023-01-18T16:36:01.961Z,9.76
2023-01-18T16:38:28.609Z,9.80
2023-01-18T16:40:57.624Z,9.83
2023-01-18T16:43:29.420Z,9.88
2023-01-18T16:45:56.879Z,9.92
2023-01-18T16:48:26.946Z,9.94
2023-01-18T16:51:01.718Z,9.91
2023-01-18T16:53:28.573Z,9.86
2023-01-18T16:55:57.976Z,9.81
2023-01-18T16:58:24.719Z,9.78
2023-01-18T17:00:58.444Z,9.77
2023-01-18T17:03:27.726Z,9.79
2023-01-18T17:05:54.856Z,9.79
2023-01-18T17:08:27.174Z,9.76
2023-01-18T17:10:54.888Z,9.72
2023-01-18T17:13:22.255Z,9.71
2023-01-18T17:15:51.633Z,9.72
2023-01-18T17:18:22.080Z,9.73
2023-01-18T17:20:48.741Z,9.78
2023-01-18T17:23:15.762Z,9.77
2023-01-18T17:25:46.528Z,9.76
2023-01-18T17:28:14.543Z,9.72
2023-01-18T17:30:41.684Z,9.72
2023-01-18T17:33:15.704Z,9.77
2023-01-18T17:35:44.788Z,9.68
2023-01-18T17:38:22.282Z,9.46
2023-01-18T17:40:49.661Z,9.35
2023-01-18T17:43:32.717Z,9.41
2023-01-18T17:46:06.438Z,9.41
2023-01-18T17:48:33.565Z,9.46
2023-01-18T17:51:02.811Z,9.47
2023-01-18T17:53:29.410Z,9.49
2023-01-18T17:55:56.036Z,9.47
2023-01-18T17:58:22.962Z,9.49
2023-01-18T18:00:49.814Z,9.49
2023-01-18T18:03:16.688Z,9.57
2023-01-18T18:05:45.931Z,9.58
2023-01-18T18:08:12.614Z,9.61
2023-01-18T18:10:41.922Z,9.62
2023-01-18T18:13:08.571Z,9.56
2023-01-18T18:15:37.838Z,9.46
2023-01-18T18:18:12.352Z,9.28
2023-01-18T18:20:48.810Z,9.23
2023-01-18T18:23:20.915Z,9.29
2023-01-18T18:25:58.497Z,9.25
2023-01-18T18:28:30.552Z,9.25
2023-01-18T18:30:59.649Z,9.16
2023-01-18T18:33:29.623Z,9.10
2023-01-18T18:35:56.353Z,9.11
2023-01-18T18:38:27.395Z,9.23
2023-01-18T18:41:05.048Z,9.34
2023-01-18T18:43:33.941Z,9.42
2023-01-18T18:46:01.357Z,9.43
2023-01-18T18:48:28.021Z,9.41
2023-01-18T18:50:56.942Z,9.40
2023-01-18T18:53:36.975Z,9.37
2023-01-18T18:56:06.997Z,9.31
2023-01-18T18:58:34.167Z,9.21
2023-01-18T19:01:01.094Z,9.16
2023-01-18T19:03:30.139Z,9.14
2023-01-18T19:05:56.789Z,9.10
2023-01-18T19:08:23.988Z,9.05
2023-01-18T19:10:57.304Z,9.05
2023-01-18T19:13:23.976Z,9.06
2023-01-18T19:15:51.323Z,9.01
2023-01-18T19:18:20.786Z,9.02
2023-01-18T19:20:49.863Z,8.97
2023-01-18T19:23:16.568Z,8.93
2023-01-18T19:25:46.900Z,8.91
2023-01-18T19:28:16.247Z,8.87
2023-01-18T19:30:45.339Z,8.88
2023-01-18T19:33:12.284Z,8.85
2023-01-18T19:35:40.925Z,8.88
2023-01-18T19:38:07.925Z,8.92
2023-01-18T19:40:34.673Z,8.91
2023-01-18T19:43:01.899Z,8.89
2023-01-18T19:45:33.517Z,8.85
2023-01-18T19:48:00.708Z,8.84
2023-01-18T19:50:30.701Z,8.84
2023-01-18T19:53:45.531Z,8.85
2023-01-18T19:56:16.857Z,8.87
2023-01-18T20:18:15.700Z,8.91
2023-01-18T20:20:51.099Z,8.89
2023-01-18T20:23:20.103Z,8.89
2023-01-18T20:25:53.515Z,8.89
2023-01-18T20:28:20.109Z,8.92
2023-01-18T20:30:50.595Z,8.90
2023-01-18T20:33:19.474Z,8.86
2023-01-18T20:35:46.769Z,8.79
2023-01-18T20:38:13.359Z,8.71
2023-01-18T20:40:43.064Z,8.70
2023-01-18T20:43:09.874Z,8.74
2023-01-18T20:45:36.554Z,8.74
2023-01-18T20:48:05.984Z,8.73
2023-01-18T20:50:35.703Z,8.72
2023-01-18T20:53:02.837Z,8.74
2023-01-18T20:55:29.467Z,8.71
2023-01-18T20:57:57.079Z,8.70
2023-01-18T21:00:27.101Z,8.73
2023-01-18T21:02:53.768Z,8.70
2023-01-18T21:05:23.178Z,8.69
2023-01-18T21:07:49.768Z,8.67
2023-01-18T21:10:19.488Z,8.61
2023-01-18T21:12:48.120Z,8.60
2023-01-18T21:15:19.549Z,8.60
2023-01-18T21:17:46.241Z,8.54
2023-01-18T21:20:13.216Z,8.49
2023-01-18T21:22:39.849Z,8.50
2023-01-18T21:25:09.533Z,8.51
2023-01-18T21:27:37.031Z,8.48
2023-01-18T21:30:06.200Z,8.53
2023-01-18T21:32:32.862Z,8.54
2023-01-18T21:34:59.628Z,8.52
2023-01-18T21:37:27.393Z,8.51
2023-01-18T21:39:58.253Z,8.48
2023-01-18T21:42:43.668Z,8.32
2023-01-18T21:45:32.931Z,8.17
2023-01-18T21:48:01.367Z,8.09
2023-01-18T21:50:47.013Z,8.14
2023-01-18T21:53:34.887Z,8.08
2023-01-18T21:56:01.539Z,8.12
2023-01-18T21:58:46.831Z,8.03
2023-01-18T22:01:19.559Z,7.93
2023-01-18T22:04:04.929Z,7.87
2023-01-18T22:06:36.397Z,7.93
2023-01-18T22:09:03.980Z,7.98
2023-01-18T22:11:33.635Z,7.98
2023-01-18T22:14:02.803Z,8.02
2023-01-18T22:16:30.674Z,7.98
2023-01-18T22:18:58.061Z,7.93
2023-01-18T22:21:25.457Z,7.90
2023-01-18T22:23:52.871Z,7.80
2023-01-18T22:26:23.295Z,7.79
2023-01-18T22:28:52.438Z,7.83
2023-01-18T22:31:19.353Z,7.81
2023-01-18T22:33:47.159Z,7.86
2023-01-18T22:36:13.975Z,7.85
2023-01-18T22:38:40.727Z,7.81
2023-01-18T22:41:10.307Z,7.79
2023-01-18T22:43:36.895Z,7.79
2023-01-18T22:46:07.128Z,7.82
2023-01-18T22:48:35.079Z,7.83
2023-01-18T22:51:01.820Z,7.86
2023-01-18T22:53:29.909Z,7.84
2023-01-18T22:56:00.697Z,7.87
2023-01-18T22:58:27.348Z,7.91
2023-01-18T23:00:56.453Z,7.89
2023-01-18T23:03:23.472Z,7.84
2023-01-18T23:05:56.937Z,7.82
2023-01-18T23:08:42.339Z,7.74
2023-01-18T23:11:13.131Z,7.78
2023-01-18T23:13:40.088Z,7.86
2023-01-18T23:16:28.790Z,7.89
2023-01-18T23:18:55.385Z,7.76
2023-01-18T23:21:22.221Z,7.75
2023-01-18T23:23:48.914Z,7.63
2023-01-18T23:26:15.795Z,7.49
2023-01-18T23:28:42.549Z,7.43
2023-01-18T23:31:13.594Z,7.37
2023-01-18T23:33:40.539Z,7.34
2023-01-18T23:36:09.871Z,7.37
2023-01-18T23:38:57.714Z,7.39
2023-01-18T23:41:43.245Z,7.37
2023-01-18T23:44:28.450Z,7.35
2023-01-18T23:47:16.510Z,7.27
2023-01-18T23:50:04.386Z,7.24
2023-01-18T23:52:51.982Z,7.27
2023-01-18T23:55:18.613Z,7.34
2023-01-18T23:57:45.185Z,7.40
